sensor_id;sensor_type;location;lat;lon;timestamp;pressure;altitude;pressure_sealevel;temperature;humidity
18900;BME280;9582;52.018;6.306;2022-12-05T00:01:16;101706.75;;;3.50;100.00
18900;BME280;9582;52.018;6.306;2022-12-05T00:03:43;101706.75;;;3.50;100.00
18900;BME280;9582;52.018;6.306;2022-12-05T00:06:11;101696.41;;;3.54;100.00
18900;BME280;9582;52.018;6.306;2022-12-05T00:08:38;101704.19;;;3.55;100.00
18900;BME280;9582;52.018;6.306;2022-12-05T00:11:09;101696.41;;;3.52;100.00
18900;BME280;9582;52.018;6.306;2022-12-05T00:13:36;101695.56;;;3.52;100.00
18900;BME280;9582;52.018;6.306;2022-12-05T00:16:06;101697.28;;;3.56;100.00
18900;BME280;9582;52.018;6.306;2022-12-05T00:18:33;101690.38;;;3.55;100.00
18900;BME280;9582;52.018;6.306;2022-12-05T00:21:00;101691.25;;;3.58;100.00
18900;BME280;9582;52.018;6.306;2022-12-05T00:23:28;101686.06;;;3.57;100.00
18900;BME280;9582;52.018;6.306;2022-12-05T00:25:54;101689.50;;;3.60;100.00
18900;BME280;9582;52.018;6.306;2022-12-05T00:28:21;101688.63;;;3.60;100.00
18900;BME280;9582;52.018;6.306;2022-12-05T00:30:48;101696.41;;;3.61;100.00
18900;BME280;9582;52.018;6.306;2022-12-05T00:33:14;101694.69;;;3.57;100.00
18900;BME280;9582;52.018;6.306;2022-12-05T00:35:40;101695.53;;;3.58;100.00
18900;BME280;9582;52.018;6.306;2022-12-05T00:38:07;101694.69;;;3.60;100.00
18900;BME280;9582;52.018;6.306;2022-12-05T00:40:35;101684.31;;;3.59;100.00
18900;BME280;9582;52.018;6.306;2022-12-05T00:43:02;101688.66;;;3.61;100.00
18900;BME280;9582;52.018;6.306;2022-12-05T00:45:28;101684.31;;;3.62;100.00
18900;BME280;9582;52.018;6.306;2022-12-05T00:47:55;101687.78;;;3.67;100.00
18900;BME280;9582;52.018;6.306;2022-12-05T00:50:21;101680.03;;;3.64;100.00
18900;BME280;9582;52.018;6.306;2022-12-05T00:52:48;101682.59;;;3.62;100.00
18900;BME280;9582;52.018;6.306;2022-12-05T00:55:14;101676.59;;;3.57;100.00
18900;BME280;9582;52.018;6.306;2022-12-05T00:57:42;101685.19;;;3.67;100.00
18900;BME280;9582;52.018;6.306;2022-12-05T01:00:09;101686.91;;;3.69;100.00
18900;BME280;9582;52.018;6.306;2022-12-05T01:02:37;101684.31;;;3.68;100.00
18900;BME280;9582;52.018;6.306;2022-12-05T01:05:04;101682.59;;;3.64;100.00
18900;BME280;9582;52.018;6.306;2022-12-05T01:07:30;101690.34;;;3.68;100.00
18900;BME280;9582;52.018;6.306;2022-12-05T01:09:57;101692.94;;;3.68;100.00
18900;BME280;9582;52.018;6.306;2022-12-05T01:12:23;101693.78;;;3.72;100.00
18900;BME280;9582;52.018;6.306;2022-12-05T01:14:53;101688.59;;;3.78;100.00
18900;BME280;9582;52.018;6.306;2022-12-05T01:17:20;101690.31;;;3.77;100.00
18900;BME280;9582;52.018;6.306;2022-12-05T01:19:46;101693.75;;;3.76;100.00
18900;BME280;9582;52.018;6.306;2022-12-05T01:22:13;101691.19;;;3.76;100.00
18900;BME280;9582;52.018;6.306;2022-12-05T01:24:39;101695.50;;;3.74;100.00
18900;BME280;9582;52.018;6.306;2022-12-05T01:27:06;101699.81;;;3.74;100.00
18900;BME280;9582;52.018;6.306;2022-12-05T01:29:32;101696.34;;;3.73;100.00
18900;BME280;9582;52.018;6.306;2022-12-05T01:32:00;101703.25;;;3.74;100.00
18900;BME280;9582;52.018;6.306;2022-12-05T01:34:27;101698.06;;;3.80;100.00
18900;BME280;9582;52.018;6.306;2022-12-05T01:36:54;101707.56;;;3.83;100.00
18900;BME280;9582;52.018;6.306;2022-12-05T01:39:20;101706.69;;;3.82;100.00
18900;BME280;9582;52.018;6.306;2022-12-05T01:41:49;101708.41;;;3.83;100.00
18900;BME280;9582;52.018;6.306;2022-12-05T01:47:22;101707.56;;;3.80;100.00
18900;BME280;9582;52.018;6.306;2022-12-05T01:49:50;101706.69;;;3.84;100.00
18900;BME280;9582;52.018;6.306;2022-12-05T01:52:19;101703.25;;;3.79;100.00
18900;BME280;9582;52.018;6.306;2022-12-05T01:54:50;101712.69;;;3.84;100.00
18900;BME280;9582;52.018;6.306;2022-12-05T01:57:17;101711.00;;;3.82;100.00
18900;BME280;9582;52.018;6.306;2022-12-05T01:59:48;101710.13;;;3.84;100.00
18900;BME280;9582;52.018;6.306;2022-12-05T02:02:15;101710.13;;;3.83;100.00
18900;BME280;9582;52.018;6.306;2022-12-05T02:04:52;101711.81;;;3.87;100.00
18900;BME280;9582;52.018;6.306;2022-12-05T02:07:21;101710.09;;;3.87;100.00
18900;BME280;9582;52.018;6.306;2022-12-05T02:09:50;101705.81;;;3.88;100.00
18900;BME280;9582;52.018;6.306;2022-12-05T02:12:17;101710.97;;;3.88;100.00
18900;BME280;9582;52.018;6.306;2022-12-05T02:14:49;101712.69;;;3.92;100.00
18900;BME280;9582;52.018;6.306;2022-12-05T02:17:25;101710.97;;;3.88;100.00
18900;BME280;9582;52.018;6.306;2022-12-05T02:20:08;101709.25;;;3.91;100.00
18900;BME280;9582;52.018;6.306;2022-12-05T02:23:01;101708.38;;;3.91;100.00
18900;BME280;9582;52.018;6.306;2022-12-05T02:25:49;101706.63;;;3.96;100.00
18900;BME280;9582;52.018;6.306;2022-12-05T02:28:34;101716.13;;;3.94;100.00
18900;BME280;9582;52.018;6.306;2022-12-05T02:31:09;101710.97;;;3.94;100.00
18900;BME280;9582;52.018;6.306;2022-12-05T02:33:43;101706.63;;;3.93;100.00
18900;BME280;9582;52.018;6.306;2022-12-05T02:36:14;101708.34;;;3.92;100.00
18900;BME280;9582;52.018;6.306;2022-12-05T02:38:49;101699.75;;;3.93;100.00
18900;BME280;9582;52.018;6.306;2022-12-05T02:41:21;101705.75;;;3.95;100.00
18900;BME280;9582;52.018;6.306;2022-12-05T02:43:53;101708.38;;;3.97;100.00
18900;BME280;9582;52.018;6.306;2022-12-05T02:46:26;101708.38;;;3.97;100.00
18900;BME280;9582;52.018;6.306;2022-12-05T02:48:58;101703.19;;;3.94;100.00
18900;BME280;9582;52.018;6.306;2022-12-05T02:51:30;101704.91;;;3.96;100.00
18900;BME280;9582;52.018;6.306;2022-12-05T02:54:00;101710.06;;;3.98;100.00
18900;BME280;9582;52.018;6.306;2022-12-05T02:56:29;101704.06;;;3.97;100.00
18900;BME280;9582;52.018;6.306;2022-12-05T02:58:58;101710.06;;;3.98;100.00
18900;BME280;9582;52.018;6.306;2022-12-05T03:01:29;101717.81;;;3.98;100.00
18900;BME280;9582;52.018;6.306;2022-12-05T03:03:59;101709.22;;;3.96;100.00
18900;BME280;9582;52.018;6.306;2022-12-05T03:06:28;101712.66;;;3.96;100.00
18900;BME280;9582;52.018;6.306;2022-12-05T03:09:00;101709.22;;;3.96;100.00
18900;BME280;9582;52.018;6.306;2022-12-05T03:11:28;101707.47;;;3.98;100.00
18900;BME280;9582;52.018;6.306;2022-12-05T03:13:58;101709.22;;;3.99;100.00
18900;BME280;9582;52.018;6.306;2022-12-05T03:16:30;101710.94;;;3.98;100.00
18900;BME280;9582;52.018;6.306;2022-12-05T03:19:00;101713.53;;;4.00;100.00
18900;BME280;9582;52.018;6.306;2022-12-05T03:21:32;101704.88;;;4.01;100.00
18900;BME280;9582;52.018;6.306;2022-12-05T03:24:02;101717.81;;;4.04;100.00
18900;BME280;9582;52.018;6.306;2022-12-05T03:26:46;101708.34;;;4.03;100.00
18900;BME280;9582;52.018;6.306;2022-12-05T03:29:23;101710.06;;;4.02;100.00
18900;BME280;9582;52.018;6.306;2022-12-05T03:31:59;101719.53;;;4.05;100.00
18900;BME280;9582;52.018;6.306;2022-12-05T03:34:33;101710.94;;;4.06;100.00
18900;BME280;9582;52.018;6.306;2022-12-05T03:37:07;101707.47;;;4.02;100.00
18900;BME280;9582;52.018;6.306;2022-12-05T03:39:38;101715.22;;;4.05;100.00
18900;BME280;9582;52.018;6.306;2022-12-05T03:42:09;101716.97;;;3.99;100.00
18900;BME280;9582;52.018;6.306;2022-12-05T03:44:44;101717.81;;;4.04;100.00
18900;BME280;9582;52.018;6.306;2022-12-05T03:47:18;101715.22;;;4.05;100.00
18900;BME280;9582;52.018;6.306;2022-12-05T03:49:48;101715.22;;;4.01;100.00
18900;BME280;9582;52.018;6.306;2022-12-05T03:52:19;101715.22;;;4.04;100.00
18900;BME280;9582;52.018;6.306;2022-12-05T03:54:51;101716.06;;;4.07;100.00
18900;BME280;9582;52.018;6.306;2022-12-05T03:57:22;101718.69;;;4.09;100.00
18900;BME280;9582;52.018;6.306;2022-12-05T03:59:52;101716.94;;;4.08;100.00
18900;BME280;9582;52.018;6.306;2022-12-05T04:02:24;101717.81;;;4.08;100.00
18900;BME280;9582;52.018;6.306;2022-12-05T04:04:57;101721.25;;;4.09;100.00
18900;BME280;9582;52.018;6.306;2022-12-05T04:07:26;101729.03;;;4.09;100.00
18900;BME280;9582;52.018;6.306;2022-12-05T04:09:57;101716.94;;;4.06;100.00
18900;BME280;9582;52.018;6.306;2022-12-05T04:12:27;101718.66;;;4.07;100.00
18900;BME280;9582;52.018;6.306;2022-12-05T04:14:57;101720.38;;;4.07;100.00
18900;BME280;9582;52.018;6.306;2022-12-05T04:17:34;101723.84;;;4.09;100.00
18900;BME280;9582;52.018;6.306;2022-12-05T04:20:05;101723.84;;;4.04;100.00
18900;BME280;9582;52.018;6.306;2022-12-05T04:22:54;101722.13;;;4.08;100.00
18900;BME280;9582;52.018;6.306;2022-12-05T04:25:24;101722.09;;;4.14;100.00
18900;BME280;9582;52.018;6.306;2022-12-05T04:28:20;101726.41;;;4.12;100.00
18900;BME280;9582;52.018;6.306;2022-12-05T04:31:00;101726.38;;;4.18;100.00
18900;BME280;9582;52.018;6.306;2022-12-05T04:33:34;101718.69;;;4.09;100.00
18900;BME280;9582;52.018;6.306;2022-12-05T04:36:09;101720.34;;;4.16;100.00
18900;BME280;9582;52.018;6.306;2022-12-05T04:38:41;101725.56;;;4.15;100.00
18900;BME280;9582;52.018;6.306;2022-12-05T04:41:13;101717.78;;;4.15;100.00
18900;BME280;9582;52.018;6.306;2022-12-05T04:43:42;101716.00;;;4.26;100.00
18900;BME280;9582;52.018;6.306;2022-12-05T04:46:12;101716.91;;;4.16;100.00
18900;BME280;9582;52.018;6.306;2022-12-05T04:48:44;101719.47;;;4.22;100.00
18900;BME280;9582;52.018;6.306;2022-12-05T04:51:17;101716.91;;;4.20;100.00
18900;BME280;9582;52.018;6.306;2022-12-05T04:53:48;101721.22;;;4.20;100.00
18900;BME280;9582;52.018;6.306;2022-12-05T04:56:19;101718.63;;;4.18;100.00
18900;BME280;9582;52.018;6.306;2022-12-05T04:58:48;101720.34;;;4.22;100.00
18900;BME280;9582;52.018;6.306;2022-12-05T05:01:18;101717.75;;;4.21;100.00
18900;BME280;9582;52.018;6.306;2022-12-05T05:03:52;101710.84;;;4.23;100.00
18900;BME280;9582;52.018;6.306;2022-12-05T05:06:19;101717.75;;;4.25;100.00
18900;BME280;9582;52.018;6.306;2022-12-05T05:08:47;101716.00;;;4.24;100.00
18900;BME280;9582;52.018;6.306;2022-12-05T05:11:17;101719.44;;;4.28;100.00
18900;BME280;9582;52.018;6.306;2022-12-05T05:13:45;101722.03;;;4.28;100.00
18900;BME280;9582;52.018;6.306;2022-12-05T05:16:13;101715.13;;;4.28;100.00
18900;BME280;9582;52.018;6.306;2022-12-05T05:18:42;101720.31;;;4.28;100.00
18900;BME280;9582;52.018;6.306;2022-12-05T05:21:15;101718.59;;;4.24;100.00
18900;BME280;9582;52.018;6.306;2022-12-05T05:23:43;101713.38;;;4.30;100.00
18900;BME280;9582;52.018;6.306;2022-12-05T05:26:09;101713.38;;;4.30;100.00
18900;BME280;9582;52.018;6.306;2022-12-05T05:28:36;101722.00;;;4.29;100.00
18900;BME280;9582;52.018;6.306;2022-12-05T05:31:03;101724.59;;;4.32;100.00
18900;BME280;9582;52.018;6.306;2022-12-05T05:33:30;101720.25;;;4.39;100.00
18900;BME280;9582;52.018;6.306;2022-12-05T05:35:56;101725.44;;;4.36;100.00
18900;BME280;9582;52.018;6.306;2022-12-05T05:38:28;101728.03;;;4.36;100.00
18900;BME280;9582;52.018;6.306;2022-12-05T05:40:54;101728.03;;;4.37;100.00
18900;BME280;9582;52.018;6.306;2022-12-05T05:43:21;101734.09;;;4.36;100.00
18900;BME280;9582;52.018;6.306;2022-12-05T05:45:47;101730.63;;;4.37;100.00
18900;BME280;9582;52.018;6.306;2022-12-05T05:48:13;101731.47;;;4.38;100.00
18900;BME280;9582;52.018;6.306;2022-12-05T05:50:40;101733.22;;;4.37;100.00
18900;BME280;9582;52.018;6.306;2022-12-05T05:53:09;101729.75;;;4.37;100.00
18900;BME280;9582;52.018;6.306;2022-12-05T05:55:39;101732.34;;;4.37;100.00
18900;BME280;9582;52.018;6.306;2022-12-05T05:58:06;101730.63;;;4.37;100.00
18900;BME280;9582;52.018;6.306;2022-12-05T06:00:33;101735.78;;;4.39;100.00
18900;BME280;9582;52.018;6.306;2022-12-05T06:03:00;101729.75;;;4.38;100.00
18900;BME280;9582;52.018;6.306;2022-12-05T06:05:26;101733.19;;;4.42;100.00
18900;BME280;9582;52.018;6.306;2022-12-05T06:07:53;101736.63;;;4.44;100.00
18900;BME280;9582;52.018;6.306;2022-12-05T06:10:19;101737.50;;;4.41;100.00
18900;BME280;9582;52.018;6.306;2022-12-05T06:12:47;101726.28;;;4.41;100.00
18900;BME280;9582;52.018;6.306;2022-12-05T06:15:13;101735.78;;;4.39;100.00
18900;BME280;9582;52.018;6.306;2022-12-05T06:17:40;101731.47;;;4.42;100.00
18900;BME280;9582;52.018;6.306;2022-12-05T06:20:07;101732.31;;;4.41;100.00
18900;BME280;9582;52.018;6.306;2022-12-05T06:22:34;101732.31;;;4.44;100.00
18900;BME280;9582;52.018;6.306;2022-12-05T06:25:01;101737.50;;;4.44;100.00
18900;BME280;9582;52.018;6.306;2022-12-05T06:27:28;101740.09;;;4.46;100.00
18900;BME280;9582;52.018;6.306;2022-12-05T06:29:57;101736.63;;;4.45;100.00
18900;BME280;9582;52.018;6.306;2022-12-05T06:32:23;101737.50;;;4.41;100.00
18900;BME280;9582;52.018;6.306;2022-12-05T06:34:50;101736.63;;;4.45;100.00
18900;BME280;9582;52.018;6.306;2022-12-05T06:37:16;101741.78;;;4.48;100.00
18900;BME280;9582;52.018;6.306;2022-12-05T06:39:43;101738.31;;;4.46;100.00
18900;BME280;9582;52.018;6.306;2022-12-05T06:42:09;101731.44;;;4.47;100.00
18900;BME280;9582;52.018;6.306;2022-12-05T06:44:36;101734.03;;;4.48;100.00
18900;BME280;9582;52.018;6.306;2022-12-05T06:47:04;101736.59;;;4.47;100.00
18900;BME280;9582;52.018;6.306;2022-12-05T06:49:30;101740.09;;;4.43;100.00
18900;BME280;9582;52.018;6.306;2022-12-05T06:51:58;101741.81;;;4.45;100.00
18900;BME280;9582;52.018;6.306;2022-12-05T06:54:25;101740.94;;;4.43;100.00
18900;BME280;9582;52.018;6.306;2022-12-05T06:56:52;101748.69;;;4.46;100.00
18900;BME280;9582;52.018;6.306;2022-12-05T06:59:18;101747.84;;;4.46;100.00
18900;BME280;9582;52.018;6.306;2022-12-05T07:01:44;101751.31;;;4.39;100.00
18900;BME280;9582;52.018;6.306;2022-12-05T07:04:13;101755.66;;;4.40;100.00
18900;BME280;9582;52.018;6.306;2022-12-05T07:06:42;101755.63;;;4.44;100.00
18900;BME280;9582;52.018;6.306;2022-12-05T07:09:09;101754.78;;;4.36;100.00
18900;BME280;9582;52.018;6.306;2022-12-05T07:11:35;101752.16;;;4.44;100.00
18900;BME280;9582;52.018;6.306;2022-12-05T07:14:03;101754.78;;;4.42;100.00
18900;BME280;9582;52.018;6.306;2022-12-05T07:16:30;101754.78;;;4.42;100.00
18900;BME280;9582;52.018;6.306;2022-12-05T07:18:57;101759.88;;;4.54;100.00
18900;BME280;9582;52.018;6.306;2022-12-05T07:21:25;101759.00;;;4.60;100.00
18900;BME280;9582;52.018;6.306;2022-12-05T07:23:52;101765.03;;;4.60;100.00
18900;BME280;9582;52.018;6.306;2022-12-05T07:26:22;101758.13;;;4.62;100.00
18900;BME280;9582;52.018;6.306;2022-12-05T07:28:50;101759.88;;;4.54;100.00
18900;BME280;9582;52.018;6.306;2022-12-05T07:31:18;101758.00;;;4.81;100.00
18900;BME280;9582;52.018;6.306;2022-12-05T07:33:46;101757.13;;;4.83;100.00
18900;BME280;9582;52.018;6.306;2022-12-05T07:36:14;101765.91;;;4.62;100.00
18900;BME280;9582;52.018;6.306;2022-12-05T07:38:42;101765.03;;;4.62;100.00
18900;BME280;9582;52.018;6.306;2022-12-05T07:41:10;101766.72;;;4.68;100.00
18900;BME280;9582;52.018;6.306;2022-12-05T07:43:39;101777.09;;;4.68;100.00
18900;BME280;9582;52.018;6.306;2022-12-05T07:46:06;101777.91;;;4.74;100.00
18900;BME280;9582;52.018;6.306;2022-12-05T07:48:33;101784.00;;;4.67;100.00
18900;BME280;9582;52.018;6.306;2022-12-05T07:51:00;101781.44;;;4.65;100.00
18900;BME280;9582;52.018;6.306;2022-12-05T07:53:27;101793.47;;;4.71;100.00
18900;BME280;9582;52.018;6.306;2022-12-05T07:55:57;101796.06;;;4.70;100.00
18900;BME280;9582;52.018;6.306;2022-12-05T07:58:24;101788.28;;;4.70;100.00
18900;BME280;9582;52.018;6.306;2022-12-05T08:00:51;101787.44;;;4.71;100.00
18900;BME280;9582;52.018;6.306;2022-12-05T08:03:17;101795.19;;;4.69;100.00
18900;BME280;9582;52.018;6.306;2022-12-05T08:05:44;101788.31;;;4.71;100.00
18900;BME280;9582;52.018;6.306;2022-12-05T08:08:11;101789.19;;;4.65;100.00
18900;BME280;9582;52.018;6.306;2022-12-05T08:10:37;101790.03;;;4.63;100.00
18900;BME280;9582;52.018;6.306;2022-12-05T08:13:05;101792.63;;;4.68;100.00
18900;BME280;9582;52.018;6.306;2022-12-05T08:15:33;101793.47;;;4.70;100.00
18900;BME280;9582;52.018;6.306;2022-12-05T08:18:00;101803.00;;;4.68;100.00
18900;BME280;9582;52.018;6.306;2022-12-05T08:20:26;101801.22;;;4.73;100.00
18900;BME280;9582;52.018;6.306;2022-12-05T08:22:53;101812.44;;;4.72;100.00
18900;BME280;9582;52.018;6.306;2022-12-05T08:25:19;101806.44;;;4.66;100.00
18900;BME280;9582;52.018;6.306;2022-12-05T08:27:46;101821.09;;;4.72;100.00
18900;BME280;9582;52.018;6.306;2022-12-05T08:30:13;101818.50;;;4.77;100.00
18900;BME280;9582;52.018;6.306;2022-12-05T08:32:40;101821.06;;;4.80;100.00
18900;BME280;9582;52.018;6.306;2022-12-05T08:35:07;101816.75;;;4.76;100.00
18900;BME280;9582;52.018;6.306;2022-12-05T08:37:34;101818.47;;;4.81;100.00
18900;BME280;9582;52.018;6.306;2022-12-05T08:40:05;101819.31;;;4.83;100.00
18900;BME280;9582;52.018;6.306;2022-12-05T08:42:32;101829.72;;;4.73;100.00
18900;BME280;9582;52.018;6.306;2022-12-05T08:44:58;101820.16;;;4.90;100.00
18900;BME280;9582;52.018;6.306;2022-12-05T08:47:26;101826.19;;;4.89;100.00
18900;BME280;9582;52.018;6.306;2022-12-05T08:49:53;101821.91;;;4.85;100.00
18900;BME280;9582;52.018;6.306;2022-12-05T08:52:19;101821.88;;;4.88;100.00
18900;BME280;9582;52.018;6.306;2022-12-05T08:54:47;101823.59;;;4.89;100.00
18900;BME280;9582;52.018;6.306;2022-12-05T08:57:13;101831.38;;;4.93;100.00
18900;BME280;9582;52.018;6.306;2022-12-05T08:59:40;101830.47;;;4.91;100.00
18900;BME280;9582;52.018;6.306;2022-12-05T09:02:07;101838.25;;;4.96;100.00
18900;BME280;9582;52.018;6.306;2022-12-05T09:04:35;101825.25;;;5.03;100.00
18900;BME280;9582;52.018;6.306;2022-12-05T09:07:01;101821.72;;;5.12;100.00
18900;BME280;9582;52.018;6.306;2022-12-05T09:09:28;101831.28;;;5.07;100.00
18900;BME280;9582;52.018;6.306;2022-12-05T09:11:56;101828.66;;;5.13;100.00
18900;BME280;9582;52.018;6.306;2022-12-05T09:14:24;101840.72;;;5.15;100.00
18900;BME280;9582;52.018;6.306;2022-12-05T09:16:57;101837.28;;;5.12;100.00
18900;BME280;9582;52.018;6.306;2022-12-05T09:19:23;101835.47;;;5.23;100.00
18900;BME280;9582;52.018;6.306;2022-12-05T09:21:53;101832.03;;;5.21;100.00
18900;BME280;9582;52.018;6.306;2022-12-05T09:24:20;101831.19;;;5.22;100.00
18900;BME280;9582;52.018;6.306;2022-12-05T09:26:46;101832.03;;;5.22;100.00
18900;BME280;9582;52.018;6.306;2022-12-05T09:29:13;101839.81;;;5.24;100.00
18900;BME280;9582;52.018;6.306;2022-12-05T09:31:40;101844.09;;;5.27;100.00
18900;BME280;9582;52.018;6.306;2022-12-05T09:34:07;101848.44;;;5.28;100.00
18900;BME280;9582;52.018;6.306;2022-12-05T09:36:34;101847.50;;;5.35;100.00
18900;BME280;9582;52.018;6.306;2022-12-05T09:39:04;101849.22;;;5.34;100.00
18900;BME280;9582;52.018;6.306;2022-12-05T09:41:46;101849.16;;;5.46;100.00
18900;BME280;9582;52.018;6.306;2022-12-05T09:44:48;101849.97;;;5.51;100.00
18900;BME280;9582;52.018;6.306;2022-12-05T09:47:29;101857.78;;;5.48;100.00
18900;BME280;9582;52.018;6.306;2022-12-05T09:50:02;101863.00;;;5.42;100.00
18900;BME280;9582;52.018;6.306;2022-12-05T09:52:32;101861.28;;;5.43;100.00
18900;BME280;9582;52.018;6.306;2022-12-05T09:55:04;101856.91;;;5.49;100.00
18900;BME280;9582;52.018;6.306;2022-12-05T09:57:34;101859.47;;;5.55;100.00
18900;BME280;9582;52.018;6.306;2022-12-05T10:00:05;101858.63;;;5.52;100.00
18900;BME280;9582;52.018;6.306;2022-12-05T10:02:40;101859.50;;;5.49;100.00
18900;BME280;9582;52.018;6.306;2022-12-05T10:05:14;101855.19;;;5.48;100.00
18900;BME280;9582;52.018;6.306;2022-12-05T10:07:50;101867.28;;;5.48;100.00
18900;BME280;9582;52.018;6.306;2022-12-05T10:10:32;101856.91;;;5.51;100.00
18900;BME280;9582;52.018;6.306;2022-12-05T10:13:18;101850.88;;;5.47;100.00
18900;BME280;9582;52.018;6.306;2022-12-05T10:15:49;101856.06;;;5.47;100.00
18900;BME280;9582;52.018;6.306;2022-12-05T10:18:27;101854.31;;;5.49;100.00
18900;BME280;9582;52.018;6.306;2022-12-05T10:20:57;101856.91;;;5.52;100.00
18900;BME280;9582;52.018;6.306;2022-12-05T10:23:30;101853.41;;;5.58;100.00
18900;BME280;9582;52.018;6.306;2022-12-05T10:26:02;101851.69;;;5.51;100.00
18900;BME280;9582;52.018;6.306;2022-12-05T10:28:33;101855.16;;;5.54;100.00
18900;BME280;9582;52.018;6.306;2022-12-05T10:31:05;101852.56;;;5.56;100.00
18900;BME280;9582;52.018;6.306;2022-12-05T10:33:37;101844.75;;;5.57;100.00
18900;BME280;9582;52.018;6.306;2022-12-05T10:36:11;101848.19;;;5.59;100.00
18900;BME280;9582;52.018;6.306;2022-12-05T10:38:38;101847.34;;;5.57;100.00
18900;BME280;9582;52.018;6.306;2022-12-05T10:41:08;101844.78;;;5.56;100.00
18900;BME280;9582;52.018;6.306;2022-12-05T10:43:39;101843.88;;;5.61;100.00
18900;BME280;9582;52.018;6.306;2022-12-05T10:46:06;101841.25;;;5.60;100.00
18900;BME280;9582;52.018;6.306;2022-12-05T10:48:35;101832.63;;;5.58;100.00
18900;BME280;9582;52.018;6.306;2022-12-05T10:51:03;101837.78;;;5.62;100.00
18900;BME280;9582;52.018;6.306;2022-12-05T10:53:37;101833.22;;;5.93;100.00
18900;BME280;9582;52.018;6.306;2022-12-05T10:56:37;101835.00;;;5.90;100.00
18900;BME280;9582;52.018;6.306;2022-12-05T10:59:05;101828.03;;;5.92;100.00
18900;BME280;9582;52.018;6.306;2022-12-05T11:01:32;101829.81;;;5.90;100.00
18900;BME280;9582;52.018;6.306;2022-12-05T11:04:05;101834.88;;;6.00;100.00
18900;BME280;9582;52.018;6.306;2022-12-05T11:06:33;101833.94;;;6.09;100.00
18900;BME280;9582;52.018;6.306;2022-12-05T11:09:04;101829.38;;;6.30;100.00
18900;BME280;9582;52.018;6.306;2022-12-05T11:11:40;101825.13;;;6.23;100.00
18900;BME280;9582;52.018;6.306;2022-12-05T11:14:20;101829.47;;;6.23;100.00
18900;BME280;9582;52.018;6.306;2022-12-05T11:16:52;101829.38;;;6.32;100.00
18900;BME280;9582;52.018;6.306;2022-12-05T11:19:24;101819.88;;;6.28;100.00
18900;BME280;9582;52.018;6.306;2022-12-05T11:21:52;101824.25;;;6.21;100.00
18900;BME280;9582;52.018;6.306;2022-12-05T11:24:20;101827.69;;;6.26;100.00
18900;BME280;9582;52.018;6.306;2022-12-05T11:26:48;101829.50;;;6.20;100.00
18900;BME280;9582;52.018;6.306;2022-12-05T11:29:28;101819.97;;;6.20;100.00
18900;BME280;9582;52.018;6.306;2022-12-05T11:31:55;101823.31;;;6.31;100.00
18900;BME280;9582;52.018;6.306;2022-12-05T11:34:24;101818.13;;;6.28;100.00
18900;BME280;9582;52.018;6.306;2022-12-05T11:36:55;101823.34;;;6.27;100.00
18900;BME280;9582;52.018;6.306;2022-12-05T11:39:23;101829.25;;;6.38;100.00
18900;BME280;9582;52.018;6.306;2022-12-05T11:42:04;101822.16;;;6.52;100.00
18900;BME280;9582;52.018;6.306;2022-12-05T11:47:31;101822.22;;;6.48;100.00
18900;BME280;9582;52.018;6.306;2022-12-05T11:50:18;101823.13;;;6.44;100.00
18900;BME280;9582;52.018;6.306;2022-12-05T11:52:58;101818.00;;;6.41;100.00
18900;BME280;9582;52.018;6.306;2022-12-05T11:55:33;101819.91;;;6.26;100.00
18900;BME280;9582;52.018;6.306;2022-12-05T12:01:08;101815.63;;;6.19;100.00
18900;BME280;9582;52.018;6.306;2022-12-05T12:03:59;101812.09;;;6.25;100.00
18900;BME280;9582;52.018;6.306;2022-12-05T12:06:32;101811.28;;;6.21;100.00
18900;BME280;9582;52.018;6.306;2022-12-05T12:09:16;101820.91;;;6.12;100.00
18900;BME280;9582;52.018;6.306;2022-12-05T12:11:50;101823.56;;;6.09;100.00
18900;BME280;9582;52.018;6.306;2022-12-05T12:14:26;101822.75;;;6.04;100.00
18900;BME280;9582;52.018;6.306;2022-12-05T12:17:04;101821.88;;;6.03;100.00
18900;BME280;9582;52.018;6.306;2022-12-05T12:19:46;101810.63;;;6.01;100.00
18900;BME280;9582;52.018;6.306;2022-12-05T12:22:29;101809.84;;;5.93;100.00
18900;BME280;9582;52.018;6.306;2022-12-05T12:25:16;101813.28;;;5.98;100.00
18900;BME280;9582;52.018;6.306;2022-12-05T12:27:51;101813.22;;;6.01;100.00
18900;BME280;9582;52.018;6.306;2022-12-05T12:30:27;101810.59;;;6.06;100.00
18900;BME280;9582;52.018;6.306;2022-12-05T12:33:03;101810.53;;;6.12;100.00
18900;BME280;9582;52.018;6.306;2022-12-05T12:35:37;101808.84;;;6.09;100.00
18900;BME280;9582;52.018;6.306;2022-12-05T12:38:20;101803.75;;;5.96;100.00
18900;BME280;9582;52.018;6.306;2022-12-05T12:40:55;101806.34;;;5.96;100.00
18900;BME280;9582;52.018;6.306;2022-12-05T12:43:36;101807.28;;;5.92;100.00
18900;BME280;9582;52.018;6.306;2022-12-05T12:46:17;101804.59;;;5.99;100.00
18900;BME280;9582;52.018;6.306;2022-12-05T12:48:57;101797.78;;;5.89;100.00
18900;BME280;9582;52.018;6.306;2022-12-05T12:51:28;101796.91;;;5.92;100.00
18900;BME280;9582;52.018;6.306;2022-12-05T12:54:11;101796.91;;;5.92;100.00
18900;BME280;9582;52.018;6.306;2022-12-05T12:56:51;101801.13;;;5.99;100.00
18900;BME280;9582;52.018;6.306;2022-12-05T12:59:34;101802.13;;;5.89;100.00
18900;BME280;9582;52.018;6.306;2022-12-05T13:02:14;101795.31;;;5.75;100.00
18900;BME280;9582;52.018;6.306;2022-12-05T13:04:48;101792.63;;;5.86;100.00
18900;BME280;9582;52.018;6.306;2022-12-05T13:07:21;101790.91;;;5.87;100.00
18900;BME280;9582;52.018;6.306;2022-12-05T13:09:54;101784.88;;;5.80;100.00
18900;BME280;9582;52.018;6.306;2022-12-05T13:12:25;101789.13;;;5.87;100.00
18900;BME280;9582;52.018;6.306;2022-12-05T13:14:55;101786.56;;;5.82;100.00
18900;BME280;9582;52.018;6.306;2022-12-05T13:17:25;101777.03;;;5.84;100.00
18900;BME280;9582;52.018;6.306;2022-12-05T13:19:53;101777.78;;;5.96;100.00
18900;BME280;9582;52.018;6.306;2022-12-05T13:22:23;101783.06;;;5.91;100.00
18900;BME280;9582;52.018;6.306;2022-12-05T13:24:53;101783.84;;;5.96;100.00
18900;BME280;9582;52.018;6.306;2022-12-05T13:27:22;101783.09;;;5.83;100.00